sensor_id;sensor_type;location;lat;lon;timestamp;P1;durP1;ratioP1;P2;durP2;ratioP2
27491;SDS011;14927;51.210;6.838;2024-02-26T00:01:47;1.27;;;0.50;;
27491;SDS011;14927;51.210;6.838;2024-02-26T00:04:32;1.52;;;0.82;;
27491;SDS011;14927;51.210;6.838;2024-02-26T00:07:17;1.13;;;0.60;;
27491;SDS011;14927;51.210;6.838;2024-02-26T00:10:01;1.17;;;0.80;;
27491;SDS011;14927;51.210;6.838;2024-02-26T00:12:46;2.60;;;0.60;;
27491;SDS011;14927;51.210;6.838;2024-02-26T00:15:31;1.17;;;0.70;;
27491;SDS011;14927;51.210;6.838;2024-02-26T00:18:16;1.25;;;0.70;;
27491;SDS011;14927;51.210;6.838;2024-02-26T00:21:01;2.00;;;1.13;;
27491;SDS011;14927;51.210;6.838;2024-02-26T00:23:46;0.80;;;0.73;;
27491;SDS011;14927;51.210;6.838;2024-02-26T00:26:31;1.42;;;0.60;;
27491;SDS011;14927;51.210;6.838;2024-02-26T00:29:16;0.90;;;0.60;;
27491;SDS011;14927;51.210;6.838;2024-02-26T00:32:01;0.93;;;0.65;;
27491;SDS011;14927;51.210;6.838;2024-02-26T00:34:46;1.05;;;0.80;;
27491;SDS011;14927;51.210;6.838;2024-02-26T00:37:31;2.97;;;0.63;;
27491;SDS011;14927;51.210;6.838;2024-02-26T00:40:15;1.50;;;0.73;;
27491;SDS011;14927;51.210;6.838;2024-02-26T00:43:00;1.70;;;1.00;;
27491;SDS011;14927;51.210;6.838;2024-02-26T00:45:45;1.98;;;0.90;;
27491;SDS011;14927;51.210;6.838;2024-02-26T00:48:30;1.55;;;0.88;;
27491;SDS011;14927;51.210;6.838;2024-02-26T00:51:15;1.13;;;0.70;;
27491;SDS011;14927;51.210;6.838;2024-02-26T00:53:59;1.77;;;0.70;;
27491;SDS011;14927;51.210;6.838;2024-02-26T00:56:44;1.00;;;0.70;;
27491;SDS011;14927;51.210;6.838;2024-02-26T00:59:29;0.60;;;0.55;;
27491;SDS011;14927;51.210;6.838;2024-02-26T01:02:13;1.00;;;0.60;;
27491;SDS011;14927;51.210;6.838;2024-02-26T01:04:58;1.52;;;0.52;;
27491;SDS011;14927;51.210;6.838;2024-02-26T01:07:42;1.13;;;0.60;;
27491;SDS011;14927;51.210;6.838;2024-02-26T01:10:27;1.15;;;1.02;;
27491;SDS011;14927;51.210;6.838;2024-02-26T01:13:11;0.80;;;0.47;;
27491;SDS011;14927;51.210;6.838;2024-02-26T01:15:56;0.85;;;0.60;;
27491;SDS011;14927;51.210;6.838;2024-02-26T01:18:41;0.57;;;0.50;;
27491;SDS011;14927;51.210;6.838;2024-02-26T01:21:25;0.75;;;0.52;;
27491;SDS011;14927;51.210;6.838;2024-02-26T01:24:12;1.05;;;0.77;;
27491;SDS011;14927;51.210;6.838;2024-02-26T01:26:57;0.85;;;0.60;;
27491;SDS011;14927;51.210;6.838;2024-02-26T01:29:42;0.80;;;0.52;;
27491;SDS011;14927;51.210;6.838;2024-02-26T01:32:26;0.70;;;0.50;;
27491;SDS011;14927;51.210;6.838;2024-02-26T01:35:11;0.98;;;0.73;;
27491;SDS011;14927;51.210;6.838;2024-02-26T01:37:56;0.73;;;0.60;;
27491;SDS011;14927;51.210;6.838;2024-02-26T01:40:42;0.68;;;0.52;;
27491;SDS011;14927;51.210;6.838;2024-02-26T01:43:26;0.95;;;0.60;;
27491;SDS011;14927;51.210;6.838;2024-02-26T01:46:12;1.63;;;0.70;;
27491;SDS011;14927;51.210;6.838;2024-02-26T01:48:58;0.77;;;0.60;;
27491;SDS011;14927;51.210;6.838;2024-02-26T01:51:43;3.85;;;0.60;;
27491;SDS011;14927;51.210;6.838;2024-02-26T01:54:28;1.88;;;0.80;;
27491;SDS011;14927;51.210;6.838;2024-02-26T01:57:14;1.30;;;0.65;;
27491;SDS011;14927;51.210;6.838;2024-02-26T01:59:59;0.73;;;0.65;;
27491;SDS011;14927;51.210;6.838;2024-02-26T02:02:44;2.05;;;1.05;;
27491;SDS011;14927;51.210;6.838;2024-02-26T02:05:30;1.50;;;1.00;;
27491;SDS011;14927;51.210;6.838;2024-02-26T02:08:15;2.40;;;0.80;;
27491;SDS011;14927;51.210;6.838;2024-02-26T02:11:00;2.78;;;0.63;;
27491;SDS011;14927;51.210;6.838;2024-02-26T02:13:45;1.00;;;0.63;;
27491;SDS011;14927;51.210;6.838;2024-02-26T02:16:29;0.95;;;0.70;;
27491;SDS011;14927;51.210;6.838;2024-02-26T02:19:14;3.25;;;0.80;;
27491;SDS011;14927;51.210;6.838;2024-02-26T02:21:58;1.25;;;0.60;;
27491;SDS011;14927;51.210;6.838;2024-02-26T02:24:44;2.25;;;0.90;;
27491;SDS011;14927;51.210;6.838;2024-02-26T02:27:30;1.67;;;0.90;;
27491;SDS011;14927;51.210;6.838;2024-02-26T02:30:14;1.88;;;0.90;;
27491;SDS011;14927;51.210;6.838;2024-02-26T02:32:59;2.25;;;0.77;;
27491;SDS011;14927;51.210;6.838;2024-02-26T02:35:44;0.90;;;0.70;;
27491;SDS011;14927;51.210;6.838;2024-02-26T02:38:29;1.60;;;0.70;;
27491;SDS011;14927;51.210;6.838;2024-02-26T02:41:15;1.52;;;0.80;;
27491;SDS011;14927;51.210;6.838;2024-02-26T02:44:00;2.00;;;0.70;;
27491;SDS011;14927;51.210;6.838;2024-02-26T02:46:44;0.75;;;0.70;;
27491;SDS011;14927;51.210;6.838;2024-02-26T02:49:29;0.57;;;0.47;;
27491;SDS011;14927;51.210;6.838;2024-02-26T02:52:13;1.42;;;0.63;;
27491;SDS011;14927;51.210;6.838;2024-02-26T02:54:58;3.28;;;0.50;;
27491;SDS011;14927;51.210;6.838;2024-02-26T02:57:43;0.98;;;0.50;;
27491;SDS011;14927;51.210;6.838;2024-02-26T03:00:28;1.48;;;0.70;;
27491;SDS011;14927;51.210;6.838;2024-02-26T03:03:13;1.33;;;0.70;;
27491;SDS011;14927;51.210;6.838;2024-02-26T03:05:58;0.77;;;0.70;;
27491;SDS011;14927;51.210;6.838;2024-02-26T03:08:43;0.60;;;0.60;;
27491;SDS011;14927;51.210;6.838;2024-02-26T03:11:28;1.70;;;0.70;;
27491;SDS011;14927;51.210;6.838;2024-02-26T03:14:13;1.33;;;0.70;;
27491;SDS011;14927;51.210;6.838;2024-02-26T03:16:58;3.00;;;0.80;;
27491;SDS011;14927;51.210;6.838;2024-02-26T03:19:43;2.35;;;1.55;;
27491;SDS011;14927;51.210;6.838;2024-02-26T03:22:30;1.33;;;0.80;;
27491;SDS011;14927;51.210;6.838;2024-02-26T03:25:15;2.33;;;0.68;;
27491;SDS011;14927;51.210;6.838;2024-02-26T03:28:00;1.13;;;0.63;;
27491;SDS011;14927;51.210;6.838;2024-02-26T03:30:44;3.38;;;0.75;;
27491;SDS011;14927;51.210;6.838;2024-02-26T03:33:29;1.30;;;0.77;;
27491;SDS011;14927;51.210;6.838;2024-02-26T03:36:13;1.00;;;0.65;;
27491;SDS011;14927;51.210;6.838;2024-02-26T03:38:58;2.58;;;0.70;;
27491;SDS011;14927;51.210;6.838;2024-02-26T03:41:42;3.20;;;0.70;;
27491;SDS011;14927;51.210;6.838;2024-02-26T03:44:27;1.45;;;0.80;;
27491;SDS011;14927;51.210;6.838;2024-02-26T03:47:12;1.83;;;0.60;;
27491;SDS011;14927;51.210;6.838;2024-02-26T03:49:56;0.80;;;0.70;;
27491;SDS011;14927;51.210;6.838;2024-02-26T03:52:42;0.90;;;0.60;;
27491;SDS011;14927;51.210;6.838;2024-02-26T03:55:27;2.63;;;0.50;;
27491;SDS011;14927;51.210;6.838;2024-02-26T03:58:12;1.58;;;0.98;;
27491;SDS011;14927;51.210;6.838;2024-02-26T04:00:57;0.75;;;0.50;;
27491;SDS011;14927;51.210;6.838;2024-02-26T04:03:42;0.70;;;0.60;;
27491;SDS011;14927;51.210;6.838;2024-02-26T04:06:27;0.70;;;0.60;;
27491;SDS011;14927;51.210;6.838;2024-02-26T04:09:13;1.10;;;0.60;;
27491;SDS011;14927;51.210;6.838;2024-02-26T04:11:58;1.05;;;0.60;;
27491;SDS011;14927;51.210;6.838;2024-02-26T04:14:43;3.05;;;0.75;;
27491;SDS011;14927;51.210;6.838;2024-02-26T04:17:28;1.90;;;0.95;;
27491;SDS011;14927;51.210;6.838;2024-02-26T04:20:13;1.00;;;0.80;;
27491;SDS011;14927;51.210;6.838;2024-02-26T04:23:02;0.77;;;0.60;;
27491;SDS011;14927;51.210;6.838;2024-02-26T04:25:47;1.10;;;0.60;;
27491;SDS011;14927;51.210;6.838;2024-02-26T04:28:32;2.03;;;0.80;;
27491;SDS011;14927;51.210;6.838;2024-02-26T04:31:17;2.80;;;0.70;;
27491;SDS011;14927;51.210;6.838;2024-02-26T04:34:02;0.77;;;0.68;;
27491;SDS011;14927;51.210;6.838;2024-02-26T04:36:47;1.50;;;0.85;;
27491;SDS011;14927;51.210;6.838;2024-02-26T04:39:31;3.13;;;0.80;;
27491;SDS011;14927;51.210;6.838;2024-02-26T04:42:16;0.90;;;0.73;;
27491;SDS011;14927;51.210;6.838;2024-02-26T04:45:00;2.42;;;0.80;;
27491;SDS011;14927;51.210;6.838;2024-02-26T04:47:45;2.95;;;0.88;;
27491;SDS011;14927;51.210;6.838;2024-02-26T04:50:30;4.20;;;0.90;;
27491;SDS011;14927;51.210;6.838;2024-02-26T04:53:17;1.80;;;1.10;;
27491;SDS011;14927;51.210;6.838;2024-02-26T04:56:02;4.88;;;0.80;;
27491;SDS011;14927;51.210;6.838;2024-02-26T04:58:47;2.00;;;0.90;;
27491;SDS011;14927;51.210;6.838;2024-02-26T05:01:32;1.33;;;0.80;;
27491;SDS011;14927;51.210;6.838;2024-02-26T05:04:16;1.63;;;0.95;;
27491;SDS011;14927;51.210;6.838;2024-02-26T05:07:01;1.58;;;0.90;;
27491;SDS011;14927;51.210;6.838;2024-02-26T05:09:46;1.63;;;0.90;;
27491;SDS011;14927;51.210;6.838;2024-02-26T05:12:33;1.17;;;0.70;;
27491;SDS011;14927;51.210;6.838;2024-02-26T05:15:19;0.65;;;0.65;;
27491;SDS011;14927;51.210;6.838;2024-02-26T05:18:03;1.35;;;0.80;;
27491;SDS011;14927;51.210;6.838;2024-02-26T05:20:48;3.67;;;1.17;;
27491;SDS011;14927;51.210;6.838;2024-02-26T05:23:33;1.63;;;0.90;;
27491;SDS011;14927;51.210;6.838;2024-02-26T05:26:21;2.05;;;0.80;;
27491;SDS011;14927;51.210;6.838;2024-02-26T05:29:06;1.15;;;0.82;;
27491;SDS011;14927;51.210;6.838;2024-02-26T05:31:51;3.78;;;1.00;;
27491;SDS011;14927;51.210;6.838;2024-02-26T05:34:37;2.75;;;1.05;;
27491;SDS011;14927;51.210;6.838;2024-02-26T05:37:22;2.33;;;1.08;;
27491;SDS011;14927;51.210;6.838;2024-02-26T05:40:06;1.92;;;0.93;;
27491;SDS011;14927;51.210;6.838;2024-02-26T05:42:51;4.82;;;1.25;;
27491;SDS011;14927;51.210;6.838;2024-02-26T05:45:36;3.35;;;0.90;;
27491;SDS011;14927;51.210;6.838;2024-02-26T05:48:21;1.98;;;1.20;;
27491;SDS011;14927;51.210;6.838;2024-02-26T05:51:05;1.95;;;1.20;;
27491;SDS011;14927;51.210;6.838;2024-02-26T05:53:50;2.22;;;1.20;;
27491;SDS011;14927;51.210;6.838;2024-02-26T05:56:37;1.23;;;1.13;;
27491;SDS011;14927;51.210;6.838;2024-02-26T05:59:22;1.30;;;1.00;;
27491;SDS011;14927;51.210;6.838;2024-02-26T06:02:07;2.35;;;1.20;;
27491;SDS011;14927;51.210;6.838;2024-02-26T06:04:51;4.32;;;1.83;;
27491;SDS011;14927;51.210;6.838;2024-02-26T06:07:38;2.53;;;1.30;;
27491;SDS011;14927;51.210;6.838;2024-02-26T06:10:23;3.88;;;1.40;;
27491;SDS011;14927;51.210;6.838;2024-02-26T06:13:07;1.50;;;1.33;;
27491;SDS011;14927;51.210;6.838;2024-02-26T06:15:52;4.55;;;2.47;;
27491;SDS011;14927;51.210;6.838;2024-02-26T06:18:37;4.72;;;1.80;;
27491;SDS011;14927;51.210;6.838;2024-02-26T06:21:21;3.75;;;1.90;;
27491;SDS011;14927;51.210;6.838;2024-02-26T06:24:08;6.00;;;1.63;;
27491;SDS011;14927;51.210;6.838;2024-02-26T06:26:53;3.28;;;2.42;;
27491;SDS011;14927;51.210;6.838;2024-02-26T06:29:38;3.55;;;2.00;;
27491;SDS011;14927;51.210;6.838;2024-02-26T06:32:23;2.80;;;1.75;;
27491;SDS011;14927;51.210;6.838;2024-02-26T06:35:08;2.90;;;1.48;;
27491;SDS011;14927;51.210;6.838;2024-02-26T06:37:55;3.70;;;1.50;;
27491;SDS011;14927;51.210;6.838;2024-02-26T06:40:40;2.10;;;1.40;;
27491;SDS011;14927;51.210;6.838;2024-02-26T06:43:24;2.83;;;1.90;;
27491;SDS011;14927;51.210;6.838;2024-02-26T06:46:09;4.85;;;2.78;;
27491;SDS011;14927;51.210;6.838;2024-02-26T06:48:54;3.75;;;2.20;;
27491;SDS011;14927;51.210;6.838;2024-02-26T06:51:38;3.88;;;2.15;;
27491;SDS011;14927;51.210;6.838;2024-02-26T06:54:22;4.93;;;1.90;;
27491;SDS011;14927;51.210;6.838;2024-02-26T06:57:07;4.22;;;2.92;;
27491;SDS011;14927;51.210;6.838;2024-02-26T06:59:52;2.70;;;2.00;;
27491;SDS011;14927;51.210;6.838;2024-02-26T07:02:36;2.67;;;1.90;;
27491;SDS011;14927;51.210;6.838;2024-02-26T07:05:21;4.78;;;2.58;;
27491;SDS011;14927;51.210;6.838;2024-02-26T07:08:06;3.55;;;2.38;;
27491;SDS011;14927;51.210;6.838;2024-02-26T07:10:50;2.97;;;1.83;;
27491;SDS011;14927;51.210;6.838;2024-02-26T07:13:44;5.18;;;2.22;;
27491;SDS011;14927;51.210;6.838;2024-02-26T07:16:40;2.78;;;2.05;;
27491;SDS011;14927;51.210;6.838;2024-02-26T07:19:25;3.95;;;2.05;;
27491;SDS011;14927;51.210;6.838;2024-02-26T07:22:09;3.40;;;2.03;;
27491;SDS011;14927;51.210;6.838;2024-02-26T07:24:54;3.10;;;2.10;;
27491;SDS011;14927;51.210;6.838;2024-02-26T07:27:39;3.90;;;2.08;;
27491;SDS011;14927;51.210;6.838;2024-02-26T07:30:24;3.33;;;2.20;;
27491;SDS011;14927;51.210;6.838;2024-02-26T07:33:08;1.88;;;1.70;;
27491;SDS011;14927;51.210;6.838;2024-02-26T07:35:53;2.65;;;1.80;;
27491;SDS011;14927;51.210;6.838;2024-02-26T07:38:38;3.13;;;1.58;;
27491;SDS011;14927;51.210;6.838;2024-02-26T07:41:22;3.72;;;2.25;;
27491;SDS011;14927;51.210;6.838;2024-02-26T07:44:07;2.70;;;2.00;;
27491;SDS011;14927;51.210;6.838;2024-02-26T07:46:52;4.18;;;2.63;;
27491;SDS011;14927;51.210;6.838;2024-02-26T07:49:36;3.60;;;2.38;;
27491;SDS011;14927;51.210;6.838;2024-02-26T07:52:21;3.35;;;2.17;;
27491;SDS011;14927;51.210;6.838;2024-02-26T07:55:06;2.47;;;2.00;;
27491;SDS011;14927;51.210;6.838;2024-02-26T07:57:57;3.60;;;2.13;;
27491;SDS011;14927;51.210;6.838;2024-02-26T08:00:44;5.32;;;2.55;;
27491;SDS011;14927;51.210;6.838;2024-02-26T08:03:30;2.88;;;1.75;;
27491;SDS011;14927;51.210;6.838;2024-02-26T08:06:16;2.63;;;1.45;;
27491;SDS011;14927;51.210;6.838;2024-02-26T08:09:00;3.17;;;1.58;;
27491;SDS011;14927;51.210;6.838;2024-02-26T08:11:44;1.63;;;1.38;;
27491;SDS011;14927;51.210;6.838;2024-02-26T08:14:29;3.22;;;2.00;;
27491;SDS011;14927;51.210;6.838;2024-02-26T08:17:16;2.88;;;1.63;;
27491;SDS011;14927;51.210;6.838;2024-02-26T08:20:01;2.15;;;1.63;;
27491;SDS011;14927;51.210;6.838;2024-02-26T08:22:46;4.55;;;1.67;;
27491;SDS011;14927;51.210;6.838;2024-02-26T08:25:31;1.52;;;1.40;;
27491;SDS011;14927;51.210;6.838;2024-02-26T08:28:15;3.38;;;1.70;;
27491;SDS011;14927;51.210;6.838;2024-02-26T08:31:01;3.22;;;1.60;;
27491;SDS011;14927;51.210;6.838;2024-02-26T08:33:46;1.92;;;1.42;;
27491;SDS011;14927;51.210;6.838;2024-02-26T08:36:32;1.65;;;1.10;;
27491;SDS011;14927;51.210;6.838;2024-02-26T08:39:18;2.58;;;1.50;;
27491;SDS011;14927;51.210;6.838;2024-02-26T08:42:02;4.97;;;1.80;;
27491;SDS011;14927;51.210;6.838;2024-02-26T08:44:47;3.17;;;1.50;;
27491;SDS011;14927;51.210;6.838;2024-02-26T08:47:32;6.93;;;1.75;;
27491;SDS011;14927;51.210;6.838;2024-02-26T08:50:16;2.05;;;1.40;;
27491;SDS011;14927;51.210;6.838;2024-02-26T08:53:01;2.35;;;1.38;;
27491;SDS011;14927;51.210;6.838;2024-02-26T08:55:47;2.53;;;1.52;;
27491;SDS011;14927;51.210;6.838;2024-02-26T08:58:31;4.07;;;1.50;;
27491;SDS011;14927;51.210;6.838;2024-02-26T09:01:16;4.10;;;1.80;;
27491;SDS011;14927;51.210;6.838;2024-02-26T09:04:01;6.60;;;1.75;;
27491;SDS011;14927;51.210;6.838;2024-02-26T09:06:46;3.33;;;1.90;;
27491;SDS011;14927;51.210;6.838;2024-02-26T09:09:31;3.58;;;1.65;;
27491;SDS011;14927;51.210;6.838;2024-02-26T09:12:15;3.05;;;1.60;;
27491;SDS011;14927;51.210;6.838;2024-02-26T09:15:00;4.07;;;2.33;;
27491;SDS011;14927;51.210;6.838;2024-02-26T09:17:44;4.93;;;2.20;;
27491;SDS011;14927;51.210;6.838;2024-02-26T09:20:29;4.65;;;2.00;;
27491;SDS011;14927;51.210;6.838;2024-02-26T09:23:17;3.28;;;1.83;;
27491;SDS011;14927;51.210;6.838;2024-02-26T09:26:05;5.55;;;2.28;;
27491;SDS011;14927;51.210;6.838;2024-02-26T09:28:50;4.95;;;2.20;;
27491;SDS011;14927;51.210;6.838;2024-02-26T09:31:35;4.50;;;2.00;;
27491;SDS011;14927;51.210;6.838;2024-02-26T09:34:20;3.88;;;1.90;;
27491;SDS011;14927;51.210;6.838;2024-02-26T09:37:05;1.73;;;1.50;;
27491;SDS011;14927;51.210;6.838;2024-02-26T09:39:50;4.40;;;2.25;;
27491;SDS011;14927;51.210;6.838;2024-02-26T09:42:34;2.60;;;1.67;;
27491;SDS011;14927;51.210;6.838;2024-02-26T09:45:19;5.05;;;1.92;;
27491;SDS011;14927;51.210;6.838;2024-02-26T09:48:09;1.70;;;1.23;;
27491;SDS011;14927;51.210;6.838;2024-02-26T09:50:56;4.32;;;1.90;;
27491;SDS011;14927;51.210;6.838;2024-02-26T09:54:11;3.75;;;1.70;;
27491;SDS011;14927;51.210;6.838;2024-02-26T09:57:00;3.67;;;1.50;;
27491;SDS011;14927;51.210;6.838;2024-02-26T09:59:50;4.65;;;1.98;;
27491;SDS011;14927;51.210;6.838;2024-02-26T10:02:37;2.47;;;1.80;;
27491;SDS011;14927;51.210;6.838;2024-02-26T10:05:23;3.70;;;2.10;;
27491;SDS011;14927;51.210;6.838;2024-02-26T10:08:12;3.83;;;1.80;;
27491;SDS011;14927;51.210;6.838;2024-02-26T10:10:57;4.15;;;2.20;;
27491;SDS011;14927;51.210;6.838;2024-02-26T10:13:45;4.38;;;2.10;;
27491;SDS011;14927;51.210;6.838;2024-02-26T10:16:44;4.88;;;2.20;;
27491;SDS011;14927;51.210;6.838;2024-02-26T10:23:25;3.92;;;1.98;;
27491;SDS011;14927;51.210;6.838;2024-02-26T10:26:11;3.60;;;2.13;;
27491;SDS011;14927;51.210;6.838;2024-02-26T10:29:01;5.20;;;2.88;;
27491;SDS011;14927;51.210;6.838;2024-02-26T10:31:50;4.47;;;2.00;;
27491;SDS011;14927;51.210;6.838;2024-02-26T10:34:43;3.15;;;2.25;;
27491;SDS011;14927;51.210;6.838;2024-02-26T10:37:28;5.57;;;1.92;;
27491;SDS011;14927;51.210;6.838;2024-02-26T10:40:14;3.67;;;1.80;;
27491;SDS011;14927;51.210;6.838;2024-02-26T10:43:03;2.35;;;1.90;;
27491;SDS011;14927;51.210;6.838;2024-02-26T10:45:57;5.47;;;2.22;;
27491;SDS011;14927;51.210;6.838;2024-02-26T10:48:49;4.20;;;2.97;;
27491;SDS011;14927;51.210;6.838;2024-02-26T10:51:34;4.68;;;2.70;;
27491;SDS011;14927;51.210;6.838;2024-02-26T10:54:22;4.90;;;2.85;;
27491;SDS011;14927;51.210;6.838;2024-02-26T10:57:12;3.63;;;2.28;;
27491;SDS011;14927;51.210;6.838;2024-02-26T10:59:57;4.53;;;2.03;;
27491;SDS011;14927;51.210;6.838;2024-02-26T11:02:54;2.90;;;2.10;;
27491;SDS011;14927;51.210;6.838;2024-02-26T11:05:41;3.72;;;2.05;;
27491;SDS011;14927;51.210;6.838;2024-02-26T11:08:28;4.35;;;2.72;;
27491;SDS011;14927;51.210;6.838;2024-02-26T11:11:14;4.45;;;2.28;;
27491;SDS011;14927;51.210;6.838;2024-02-26T11:14:01;4.90;;;2.30;;
27491;SDS011;14927;51.210;6.838;2024-02-26T11:16:47;4.95;;;2.63;;
27491;SDS011;14927;51.210;6.838;2024-02-26T11:19:35;3.65;;;2.35;;
27491;SDS011;14927;51.210;6.838;2024-02-26T11:22:21;4.35;;;2.53;;
27491;SDS011;14927;51.210;6.838;2024-02-26T11:25:12;4.03;;;2.40;;
27491;SDS011;14927;51.210;6.838;2024-02-26T11:27:58;9.23;;;2.65;;
27491;SDS011;14927;51.210;6.838;2024-02-26T11:30:48;2.88;;;1.65;;
27491;SDS011;14927;51.210;6.838;2024-02-26T11:33:33;4.63;;;2.58;;
27491;SDS011;14927;51.210;6.838;2024-02-26T11:36:25;4.65;;;2.40;;
27491;SDS011;14927;51.210;6.838;2024-02-26T11:39:11;2.70;;;2.10;;
27491;SDS011;14927;51.210;6.838;2024-02-26T11:42:04;2.78;;;2.15;;
27491;SDS011;14927;51.210;6.838;2024-02-26T11:44:50;3.05;;;2.10;;
27491;SDS011;14927;51.210;6.838;2024-02-26T11:47:35;5.43;;;2.78;;
27491;SDS011;14927;51.210;6.838;2024-02-26T11:50:35;4.60;;;2.65;;
27491;SDS011;14927;51.210;6.838;2024-02-26T11:53:28;3.30;;;2.30;;
27491;SDS011;14927;51.210;6.838;2024-02-26T11:59:10;3.75;;;2.58;;
27491;SDS011;14927;51.210;6.838;2024-02-26T12:01:56;3.15;;;2.85;;
27491;SDS011;14927;51.210;6.838;2024-02-26T12:04:41;7.15;;;2.92;;
27491;SDS011;14927;51.210;6.838;2024-02-26T12:07:26;6.10;;;2.85;;
27491;SDS011;14927;51.210;6.838;2024-02-26T12:13:12;4.78;;;3.35;;
27491;SDS011;14927;51.210;6.838;2024-02-26T12:15:58;8.35;;;3.70;;
27491;SDS011;14927;51.210;6.838;2024-02-26T12:18:44;4.68;;;3.33;;
27491;SDS011;14927;51.210;6.838;2024-02-26T12:21:29;4.93;;;3.47;;
27491;SDS011;14927;51.210;6.838;2024-02-26T12:24:14;6.88;;;3.72;;
27491;SDS011;14927;51.210;6.838;2024-02-26T12:26:59;5.32;;;4.25;;
27491;SDS011;14927;51.210;6.838;2024-02-26T12:29:44;5.30;;;3.88;;
27491;SDS011;14927;51.210;6.838;2024-02-26T12:32:29;6.43;;;4.15;;
27491;SDS011;14927;51.210;6.838;2024-02-26T12:35:14;5.57;;;3.92;;
27491;SDS011;14927;51.210;6.838;2024-02-26T12:37:59;8.90;;;4.57;;
27491;SDS011;14927;51.210;6.838;2024-02-26T12:40:51;6.75;;;4.88;;
27491;SDS011;14927;51.210;6.838;2024-02-26T12:44:09;6.28;;;4.40;;
27491;SDS011;14927;51.210;6.838;2024-02-26T12:47:00;7.63;;;5.20;;
27491;SDS011;14927;51.210;6.838;2024-02-26T12:49:48;7.60;;;4.75;;
27491;SDS011;14927;51.210;6.838;2024-02-26T12:52:33;7.60;;;5.43;;
27491;SDS011;14927;51.210;6.838;2024-02-26T12:55:29;6.75;;;5.35;;
27491;SDS011;14927;51.210;6.838;2024-02-26T12:58:21;9.13;;;5.25;;
27491;SDS011;14927;51.210;6.838;2024-02-26T13:01:47;9.23;;;5.50;;
27491;SDS011;14927;51.210;6.838;2024-02-26T13:04:31;8.40;;;6.10;;
27491;SDS011;14927;51.210;6.838;2024-02-26T13:07:17;8.88;;;6.00;;
27491;SDS011;14927;51.210;6.838;2024-02-26T13:10:02;9.43;;;5.82;;
27491;SDS011;14927;51.210;6.838;2024-02-26T13:12:48;9.13;;;5.97;;
27491;SDS011;14927;51.210;6.838;2024-02-26T13:15:36;9.40;;;6.57;;
27491;SDS011;14927;51.210;6.838;2024-02-26T13:18:21;9.68;;;6.60;;
27491;SDS011;14927;51.210;6.838;2024-02-26T13:21:15;9.43;;;5.97;;
27491;SDS011;14927;51.210;6.838;2024-02-26T13:24:02;10.18;;;6.40;;
27491;SDS011;14927;51.210;6.838;2024-02-26T13:26:53;9.68;;;6.53;;
27491;SDS011;14927;51.210;6.838;2024-02-26T13:29:38;11.85;;;6.63;;
27491;SDS011;14927;51.210;6.838;2024-02-26T13:32:23;11.55;;;6.40;;
27491;SDS011;14927;51.210;6.838;2024-02-26T13:35:14;9.05;;;6.65;;
27491;SDS011;14927;51.210;6.838;2024-02-26T13:37:59;11.27;;;6.63;;
27491;SDS011;14927;51.210;6.838;2024-02-26T13:40:44;10.32;;;6.65;;
27491;SDS011;14927;51.210;6.838;2024-02-26T13:43:28;9.85;;;6.50;;
27491;SDS011;14927;51.210;6.838;2024-02-26T13:46:15;10.48;;;6.25;;
27491;SDS011;14927;51.210;6.838;2024-02-26T13:49:00;8.75;;;5.80;;
27491;SDS011;14927;51.210;6.838;2024-02-26T13:51:45;7.97;;;5.70;;
27491;SDS011;14927;51.210;6.838;2024-02-26T13:54:29;9.55;;;6.03;;
27491;SDS011;14927;51.210;6.838;2024-02-26T13:57:14;7.13;;;5.32;;
27491;SDS011;14927;51.210;6.838;2024-02-26T13:59:59;8.40;;;5.90;;
27491;SDS011;14927;51.210;6.838;2024-02-26T14:02:43;6.50;;;5.20;;
27491;SDS011;14927;51.210;6.838;2024-02-26T14:05:28;9.13;;;5.93;;
27491;SDS011;14927;51.210;6.838;2024-02-26T14:08:18;11.27;;;5.63;;
27491;SDS011;14927;51.210;6.838;2024-02-26T14:11:03;12.02;;;6.25;;
27491;SDS011;14927;51.210;6.838;2024-02-26T14:13:47;9.23;;;6.95;;
27491;SDS011;14927;51.210;6.838;2024-02-26T14:16:32;9.18;;;5.70;;
27491;SDS011;14927;51.210;6.838;2024-02-26T14:19:17;8.00;;;5.78;;
27491;SDS011;14927;51.210;6.838;2024-02-26T14:22:01;7.78;;;5.60;;
27491;SDS011;14927;51.210;6.838;2024-02-26T14:24:46;9.18;;;6.03;;
27491;SDS011;14927;51.210;6.838;2024-02-26T14:27:31;8.43;;;6.07;;
27491;SDS011;14927;51.210;6.838;2024-02-26T14:30:18;7.78;;;5.20;;
27491;SDS011;14927;51.210;6.838;2024-02-26T14:33:05;7.75;;;5.82;;
27491;SDS011;14927;51.210;6.838;2024-02-26T14:35:50;7.75;;;5.20;;
27491;SDS011;14927;51.210;6.838;2024-02-26T14:38:34;7.82;;;5.45;;
27491;SDS011;14927;51.210;6.838;2024-02-26T14:41:19;7.10;;;5.07;;
27491;SDS011;14927;51.210;6.838;2024-02-26T14:44:04;9.52;;;4.95;;
27491;SDS011;14927;51.210;6.838;2024-02-26T14:46:49;7.78;;;5.35;;
27491;SDS011;14927;51.210;6.838;2024-02-26T14:49:34;9.02;;;5.32;;
27491;SDS011;14927;51.210;6.838;2024-02-26T14:52:18;10.05;;;5.75;;
27491;SDS011;14927;51.210;6.838;2024-02-26T14:55:03;7.38;;;5.13;;
27491;SDS011;14927;51.210;6.838;2024-02-26T14:57:49;7.68;;;5.20;;
27491;SDS011;14927;51.210;6.838;2024-02-26T15:00:33;6.82;;;4.82;;
27491;SDS011;14927;51.210;6.838;2024-02-26T15:03:19;6.15;;;4.93;;
27491;SDS011;14927;51.210;6.838;2024-02-26T15:06:03;6.68;;;4.53;;
27491;SDS011;14927;51.210;6.838;2024-02-26T15:08:48;5.35;;;4.50;;
27491;SDS011;14927;51.210;6.838;2024-02-26T15:11:33;9.65;;;4.88;;
27491;SDS011;14927;51.210;6.838;2024-02-26T15:14:23;7.00;;;5.18;;
27491;SDS011;14927;51.210;6.838;2024-02-26T15:17:08;5.93;;;4.53;;
27491;SDS011;14927;51.210;6.838;2024-02-26T15:19:57;6.82;;;4.53;;
27491;SDS011;14927;51.210;6.838;2024-02-26T15:22:42;8.05;;;4.90;;
27491;SDS011;14927;51.210;6.838;2024-02-26T15:25:27;7.53;;;5.63;;
27491;SDS011;14927;51.210;6.838;2024-02-26T15:28:12;5.57;;;4.35;;
27491;SDS011;14927;51.210;6.838;2024-02-26T15:30:58;5.57;;;4.25;;
27491;SDS011;14927;51.210;6.838;2024-02-26T15:33:43;5.10;;;4.38;;
27491;SDS011;14927;51.210;6.838;2024-02-26T15:36:34;7.40;;;4.82;;
27491;SDS011;14927;51.210;6.838;2024-02-26T15:39:19;5.72;;;4.35;;
27491;SDS011;14927;51.210;6.838;2024-02-26T15:42:05;6.90;;;4.68;;
27491;SDS011;14927;51.210;6.838;2024-02-26T15:44:49;7.45;;;4.43;;
27491;SDS011;14927;51.210;6.838;2024-02-26T15:47:34;6.18;;;4.50;;
27491;SDS011;14927;51.210;6.838;2024-02-26T15:50:18;7.80;;;4.60;;
27491;SDS011;14927;51.210;6.838;2024-02-26T15:53:05;9.73;;;5.30;;
27491;SDS011;14927;51.210;6.838;2024-02-26T15:55:51;6.70;;;4.63;;
27491;SDS011;14927;51.210;6.838;2024-02-26T15:58:35;5.93;;;4.60;;
27491;SDS011;14927;51.210;6.838;2024-02-26T16:01:20;14.07;;;4.68;;
27491;SDS011;14927;51.210;6.838;2024-02-26T16:04:05;5.97;;;4.05;;
27491;SDS011;14927;51.210;6.838;2024-02-26T16:07:02;5.63;;;4.22;;
27491;SDS011;14927;51.210;6.838;2024-02-26T16:09:56;5.15;;;4.20;;
27491;SDS011;14927;51.210;6.838;2024-02-26T16:12:52;5.07;;;3.75;;
27491;SDS011;14927;51.210;6.838;2024-02-26T16:15:49;6.85;;;4.25;;
27491;SDS011;14927;51.210;6.838;2024-02-26T16:18:50;6.22;;;4.45;;
27491;SDS011;14927;51.210;6.838;2024-02-26T16:21:53;5.07;;;3.38;;
27491;SDS011;14927;51.210;6.838;2024-02-26T16:24:38;9.55;;;3.72;;
27491;SDS011;14927;51.210;6.838;2024-02-26T16:27:28;4.57;;;3.33;;
27491;SDS011;14927;51.210;6.838;2024-02-26T16:30:24;3.92;;;2.88;;
27491;SDS011;14927;51.210;6.838;2024-02-26T16:33:41;3.00;;;2.28;;
27491;SDS011;14927;51.210;6.838;2024-02-26T16:36:26;4.03;;;3.17;;
27491;SDS011;14927;51.210;6.838;2024-02-26T16:39:14;4.40;;;2.67;;
27491;SDS011;14927;51.210;6.838;2024-02-26T16:42:04;3.35;;;2.60;;
27491;SDS011;14927;51.210;6.838;2024-02-26T16:48:14;4.13;;;2.40;;
27491;SDS011;14927;51.210;6.838;2024-02-26T16:50:58;3.28;;;2.05;;
27491;SDS011;14927;51.210;6.838;2024-02-26T16:53:46;4.25;;;2.58;;
27491;SDS011;14927;51.210;6.838;2024-02-26T16:56:45;4.82;;;2.20;;